Terminal Aerodrome Forecast
Issued by NWS Cleveland, OH

Home | Current Version | Previous Version | Graphics & Text | Print | Product List | Glossary On
Versions: 1 2 3 4 5 6 7 8 9 10 11 12 13 14 15 16 17 18 19 20 21
431
FTUS41 KCLE 201433 AAA
TAFCLE
TAF AMD
KCLE 201433Z 2015/2118 33008KT P6SM SKC
     FM210500 00000KT P6SM SKC
     FM211200 VRB03KT P6SM SCT200=

USA.gov is the U.S. government's official web portal to all federal, state and local government web resources and services.